Airfield :
LOGIN :

Register | Disclaimer

   EN    FR    IT 

 










Legend :    VFR   Marginal VFR   IFR   Intensive IFR   Very Intensive IFR
Visi :
Ceiling :
>= 8 km
>= 3000ft
5 to 8 km
1000 to 3000 ft
1500m to 5 km
500 to 1000 ft
800 to 1500m
200 to 500 ft
< 800m
< 200 ft
Symbols :   Thunderstorms  Fog  Heavy snow  Heavy precipitations  Wind > 20 kt
SIGMETs :     Misc.  Thunderstorms  Icing  Turbulence  Mountain Waves  Volcanic Ashes






- Airport Elevation : 1966 ft
- IATA code : SGE


EDGS - Siegerland

CURRENT METAR :
  • 270820Z 22008KT 9999 3700SE BCFG FEW002 SCT007 BKN011 M01/M02 Q1002

EXPIRED METARs :
  • 270750Z 22008KT 9999 3700SE BCFG FEW002 SCT007 M01/M02 Q1002

TAF TAF EDGS
Valid from the 27 at 09:00 until the 27 at 18:00 UTC


270800Z 2709/2718 22012KT 8000 SCT006
PROB30
TEMPO 2709/2711 16010KT 2500 BCFG BKN006
BECMG 2711/2713 13012KT 1500 -SN BKN003
TEMPO 2713/2718 0200 +SN OVC001
BECMG 2715/2717 05010KT



MET'MAP, your aeronautical weather chart ! - Copyright ORBIFLY December 2007 - Disclaimer

ORBIFLY MET'MAP TEAM :

Programming & Development : Alexandra Zaïnal
Concept & original design : Baudouin d'Aumeries
Assistance for programming : Marc-Olivier Méhu
Technical & hardware support : Manuel Goepfert

Contact : metmap@orbifly.com




SOURCES & CREDITS :

   NOAA